Flight Track Log - Related Links

Times and Time Zones

All times are in EDT time to prevent confusion due to time zone crossing. See the FFT797 flight status page for this flight to view local times or setup timezone preferences in your user account.

Time Position Orientation Groundspeed Altitude Reporting Facility
EDT Latitude Longitude Course Direction KTS MPH feet Rate Location/Type
Mon 05:43:10 PM 40.7333 -73.8000 27° Northeast 217 250 2,100  Level New York TRACON
Mon 05:44:10 PM 40.7833 -73.7667 303° West 282 325 4,500 2,500 Climbing New York TRACON
Mon 05:45:10 PM 40.8167 -73.8333 308° West 259 298 7,100 2,600 Climbing New York TRACON
Mon 05:46:10 PM 40.8667 -73.9167 282° West 261 300 9,700 1,952 Climbing New York TRACON
Mon 05:47:16 PM 40.8833 -74.0167 259° West 303 349 11,200 1,619 Climbing New York TRACON
Mon 05:48:16 PM 40.8667 -74.1333 279° West 329 379 13,100 1,650 Climbing New York TRACON
Mon 05:49:16 PM 40.8833 -74.2667 270° West 368 423 14,500 1,900 Climbing New York TRACON
Mon 05:50:16 PM 40.8833 -74.4000 270° West 361 415 16,900 1,250 Climbing New York TRACON
Mon 05:51:16 PM 40.8833 -74.5500 273° West 367 422 17,000 187 Climbing New York TRACON
Mon 05:55:05 PM 40.8994 -75.0289 278° West 399 459 17,800 214 Climbing New York Center
Mon 06:02:15 PM 40.7329 -75.9243 279° West  Level FlightAware Approximate
Mon 06:03:15 PM 40.7039 -76.0510 279° West  Level FlightAware Approximate
Mon 06:04:15 PM 40.6694 -76.1752 279° West  Level FlightAware Approximate
Mon 06:05:15 PM 40.6690 -76.2971 279° West  Level FlightAware Approximate
Mon 06:06:15 PM 40.6877 -76.4271 279° West  Level FlightAware Approximate
Mon 06:07:15 PM 40.7062 -76.5572 279° West  Level FlightAware Approximate
Mon 06:08:15 PM 40.7275 -76.6852 279° West  Level FlightAware Approximate
Mon 06:09:15 PM 40.7456 -76.8155 279° West  Level FlightAware Approximate
Mon 06:10:15 PM 40.7602 -76.9458 279° West  Level FlightAware Approximate
Mon 06:11:15 PM 40.7864 -77.0736 279° West  Level FlightAware Approximate
Mon 06:12:15 PM 40.8040 -77.2041 279° West  Level FlightAware Approximate
Mon 06:13:15 PM 40.8213 -77.3347 278° West  Level FlightAware Approximate
Mon 06:14:15 PM 40.8377 -77.4656 278° West  Level FlightAware Approximate
Mon 06:15:15 PM 40.8548 -77.5963 278° West  Level FlightAware Approximate
Mon 06:16:15 PM 40.8716 -77.7271 278° West  Level FlightAware Approximate
Mon 06:17:15 PM 40.8883 -77.8580 278° West  Level FlightAware Approximate
Mon 06:18:15 PM 40.9012 -77.9895 278° West  Level FlightAware Approximate
Mon 06:19:15 PM 40.9242 -78.1188 278° West  Level FlightAware Approximate
Mon 06:20:15 PM 40.9402 -78.2499 278° West  Level FlightAware Approximate
Mon 06:21:15 PM 40.9560 -78.3811 278° West  Level FlightAware Approximate
Mon 06:22:15 PM 40.9773 -78.5102 277° West  Level FlightAware Approximate
Mon 06:23:15 PM 40.9919 -78.6418 277° West  Level FlightAware Approximate
Mon 06:24:15 PM 41.0063 -78.7734 277° West  Level FlightAware Approximate
Mon 06:25:15 PM 41.0206 -78.9050 277° West  Level FlightAware Approximate
Mon 06:26:15 PM 41.0348 -79.0367 277° West  Level FlightAware Approximate
Mon 06:27:15 PM 41.0488 -79.1684 277° West  Level FlightAware Approximate
Mon 06:28:15 PM 41.0627 -79.3002 277° West  Level FlightAware Approximate
Mon 06:29:15 PM 41.0764 -79.4321 277° West  Level FlightAware Approximate
Mon 06:30:15 PM 41.0900 -79.5640 277° West  Level FlightAware Approximate
Mon 06:31:15 PM 41.1047 -79.6957 276° West  Level FlightAware Approximate
Mon 06:32:15 PM 41.1175 -79.8279 276° West  Level FlightAware Approximate
Mon 06:33:15 PM 41.1301 -79.9600 276° West  Level FlightAware Approximate
Mon 06:34:15 PM 41.1425 -80.0922 276° West  Level FlightAware Approximate
Mon 06:35:15 PM 41.1599 -80.2235 276° West  Level FlightAware Approximate
Mon 06:36:15 PM 41.1716 -80.3559 276° West  Level FlightAware Approximate
Mon 06:37:15 PM 41.1923 -80.4857 276° West  Level FlightAware Approximate
Mon 06:38:15 PM 41.2038 -80.6182 276° West  Level FlightAware Approximate
Mon 06:39:15 PM 41.2152 -80.7507 275° West  Level FlightAware Approximate
Mon 06:40:15 PM 41.2263 -80.8833 275° West  Level FlightAware Approximate
Mon 06:41:15 PM 41.2368 -81.0161 275° West  Level FlightAware Approximate
Mon 06:42:15 PM 41.2470 -81.1488 275° West  Level FlightAware Approximate
Mon 06:43:15 PM 41.2571 -81.2816 275° West  Level FlightAware Approximate
Mon 06:44:15 PM 41.2671 -81.4145 275° West  Level FlightAware Approximate
Mon 06:45:15 PM 41.2769 -81.5473 275° West  Level FlightAware Approximate
Mon 06:46:15 PM 41.3085 -81.6633 274° West  Level FlightAware Approximate
Mon 06:47:15 PM 41.3173 -81.7964 274° West  Level FlightAware Approximate
Mon 06:48:15 PM 41.3260 -81.9295 274° West  Level FlightAware Approximate
Mon 06:49:15 PM 41.3345 -82.0627 274° West  Level FlightAware Approximate
Mon 06:50:15 PM 41.3533 -82.1937 274° West  Level FlightAware Approximate
Mon 06:51:15 PM 41.3610 -82.3270 273° West  Level FlightAware Approximate
Mon 06:52:15 PM 41.3686 -82.4603 273° West  Level FlightAware Approximate
Mon 06:53:15 PM 41.3760 -82.5937 273° West  Level FlightAware Approximate
Mon 06:54:15 PM 41.3833 -82.7221 273° West  Level FlightAware Approximate
Mon 06:55:15 PM 41.3904 -82.8555 273° West  Level FlightAware Approximate
Mon 06:56:15 PM 41.3970 -82.9890 273° West  Level FlightAware Approximate
Mon 06:57:15 PM 41.4034 -83.1225 273° West  Level FlightAware Approximate
Mon 06:58:15 PM 41.4097 -83.2560 273° West  Level FlightAware Approximate
Mon 06:59:15 PM 41.4158 -83.3896 272° West  Level FlightAware Approximate
Mon 07:00:15 PM 41.4218 -83.5232 272° West  Level FlightAware Approximate
Mon 07:01:15 PM 41.4336 -83.6561 272° West  Level FlightAware Approximate
Mon 07:02:15 PM 41.4390 -83.7897 272° West  Level FlightAware Approximate
Mon 07:03:15 PM 41.4444 -83.9234 272° West  Level FlightAware Approximate
Mon 07:04:15 PM 41.4496 -84.0571 272° West  Level FlightAware Approximate
Mon 07:05:15 PM 41.4515 -84.1910 271° West  Level FlightAware Approximate
Mon 07:06:15 PM 41.4565 -84.3247 271° West  Level FlightAware Approximate
Mon 07:07:15 PM 41.4613 -84.4585 271° West  Level FlightAware Approximate
Mon 07:08:15 PM 41.4660 -84.5922 271° West  Level FlightAware Approximate
Mon 07:10:51 PM 41.4725 -86.1711 271° West 395 455 34,000  Level Chicago Center
Mon 07:11:51 PM 41.4742 -86.3097 273° West 390 449 34,000  Level Chicago Center
Mon 07:12:51 PM 41.4800 -86.4506 273° West 384 442 34,000  Level Chicago Center
Mon 07:13:51 PM 41.4856 -86.5972 267° West 384 442 34,000  Level Chicago Center
Mon 07:14:51 PM 41.4806 -86.7389 275° West 389 448 34,000  Level Chicago Center
Mon 07:15:51 PM 41.4900 -86.8856 272° West 389 448 34,000  Level Chicago Center
Mon 07:16:51 PM 41.4931 -87.0267 272° West 389 448 34,000  Level Chicago Center
Mon 07:18:51 PM 41.5008 -87.3178 271° West 389 448 34,000  Level Chicago Center
Mon 07:19:51 PM 41.5031 -87.4589 272° West 389 448 34,000  Level Chicago Center
Mon 07:20:51 PM 41.5075 -87.6058 271° West 389 448 34,000  Level Chicago Center
Mon 07:21:51 PM 41.5094 -87.7444 272° West 389 448 34,000 550 Level Chicago Center
Mon 07:22:51 PM 41.5136 -87.8886 271° West 384 442 35,100 1,000 Climbing Chicago Center
Mon 07:23:51 PM 41.5153 -88.0272 271° West 378 435 36,000 450 Climbing Chicago Center
Mon 07:24:51 PM 41.5167 -88.1547 272° West 387 445 36,000  Level Chicago Center
Mon 07:25:51 PM 41.5203 -88.2961 271° West 387 445 36,000  Level Chicago Center
Mon 07:26:51 PM 41.5214 -88.4375 271° West 382 440 36,000  Level Chicago Center
Mon 07:27:51 PM 41.5225 -88.5706 271° West 376 433 36,000  Level Chicago Center
Mon 07:28:51 PM 41.5233 -88.7064 270° West 370 426 36,000  Level Chicago Center
Mon 07:29:51 PM 41.5239 -88.8422 272° West 370 426 36,000  Level Chicago Center
Mon 07:30:51 PM 41.5267 -88.9839 271° West 370 426 36,000  Level Chicago Center
Mon 07:32:51 PM 41.5292 -89.2667 271° West 365 420 36,000  Level Chicago Center
Mon 07:33:51 PM 41.5314 -89.4136 270° West 371 427 36,000  Level Chicago Center
Mon 07:34:51 PM 41.5311 -89.5581 270° West 384 442 36,000  Level Chicago Center
Mon 07:35:51 PM 41.5308 -89.7050 271° West 389 448 36,000  Level Chicago Center
Mon 07:36:51 PM 41.5322 -89.8519 271° West 395 455 36,000  Level Chicago Center
Mon 07:37:51 PM 41.5336 -90.0017 268° West 400 460 36,000  Level Chicago Center
Mon 07:38:51 PM 41.5306 -90.1486 271° West 400 460 36,000  Level Chicago Center
Mon 07:39:51 PM 41.5317 -90.2958 269° West 400 460 36,000  Level Chicago Center
Mon 07:40:51 PM 41.5303 -90.4428 270° West 400 460 36,000  Level Chicago Center
Mon 07:41:51 PM 41.5308 -90.5925 269° West 400 460 36,000  Level Chicago Center
Mon 07:42:51 PM 41.5292 -90.7311 269° West 400 460 36,000  Level Chicago Center
Mon 07:43:51 PM 41.5275 -90.8808 270° West 400 460 36,000  Level Chicago Center
Mon 07:44:51 PM 41.5275 -91.0253 268° West 400 460 36,000  Level Chicago Center
Mon 07:45:51 PM 41.5231 -91.1775 270° West 400 460 36,000  Level Chicago Center
Mon 07:46:51 PM 41.5228 -91.3164 270° West 408 470 36,000  Level Chicago Center
Mon 07:47:51 PM 41.5217 -91.4939 268° West 408 470 36,000  Level Chicago Center
Mon 07:48:51 PM 41.5169 -91.6378 267° West 403 464 36,000  Level Chicago Center
Mon 07:49:51 PM 41.5117 -91.7903 267° West 403 464 36,000  Level Chicago Center
Mon 07:50:51 PM 41.5061 -91.9397 268° West 403 464 36,000  Level Chicago Center
Mon 07:51:51 PM 41.5028 -92.0864 266° West 403 464 36,000  Level Chicago Center
Mon 07:52:51 PM 41.4950 -92.2331 268° West 403 464 36,000  Level Chicago Center
Mon 07:53:51 PM 41.4911 -92.3828 269° West 403 464 36,000  Level Chicago Center
Mon 07:54:51 PM 41.4892 -92.5350 267° West 403 464 36,000  Level Chicago Center
Mon 07:55:51 PM 41.4828 -92.6844 267° West 403 464 36,000  Level Chicago Center
Mon 07:56:51 PM 41.4764 -92.8311 267° West 403 464 36,000  Level Chicago Center
Mon 07:58:07 PM 41.4697 -92.9964 265° West 409 471 36,000  Level Minneapolis Center
Mon 07:59:06 PM 41.4597 -93.1511 268° West 409 471 36,000  Level Minneapolis Center
Mon 08:00:06 PM 41.4558 -93.2950 267° West 404 465 36,000  Level Minneapolis Center
Mon 08:01:06 PM 41.4497 -93.4444 266° West 404 465 36,000  Level Minneapolis Center
Mon 08:02:07 PM 41.4414 -93.5936 269° West 409 471 36,000  Level Minneapolis Center
Mon 08:03:07 PM 41.4389 -93.7403 270° West 403 464 36,000  Level Minneapolis Center
Mon 08:04:07 PM 41.4383 -93.8867 271° West 403 464 36,000  Level Minneapolis Center
Mon 08:05:06 PM 41.4397 -94.0331 270° West 403 464 36,000  Level Minneapolis Center
Mon 08:06:06 PM 41.4389 -94.1992 271° West 403 464 36,000  Level Minneapolis Center
Mon 08:07:07 PM 41.4400 -94.3289 271° West 403 464 36,000  Level Minneapolis Center
Mon 08:08:06 PM 41.4428 -94.4756 268° West 403 464 36,000  Level Minneapolis Center
Mon 08:09:06 PM 41.4392 -94.6219 270° West 403 464 36,000  Level Minneapolis Center
Mon 08:10:07 PM 41.4397 -94.7658 270° West 398 458 36,000  Level Minneapolis Center
Mon 08:11:06 PM 41.4397 -94.9125 270° West 398 458 36,000  Level Minneapolis Center
Mon 08:12:07 PM 41.4400 -95.0561 270° West 398 458 36,000  Level Minneapolis Center
Mon 08:13:07 PM 41.4397 -95.2028 269° West 398 458 36,000  Level Minneapolis Center
Mon 08:14:07 PM 41.4372 -95.3492 270° West 398 458 36,000  Level Minneapolis Center
Mon 08:15:07 PM 41.4367 -95.4956 272° West 404 465 36,000  Level Minneapolis Center
Mon 08:16:07 PM 41.4417 -95.6617 268° West 404 465 36,000  Level Minneapolis Center
Mon 08:17:07 PM 41.4386 -95.8081 269° West 404 465 36,000  Level Minneapolis Center
Mon 08:18:07 PM 41.4375 -95.9547 264° West 404 465 36,000  Level Minneapolis Center
Mon 08:19:07 PM 41.4258 -96.1008 265° West 404 465 36,000  Level Minneapolis Center
Mon 08:20:06 PM 41.4158 -96.2494 260° West 404 465 36,000  Level Minneapolis Center
Mon 08:21:07 PM 41.3950 -96.4006 264° West 409 471 36,000  Level Minneapolis Center
Mon 08:22:07 PM 41.3828 -96.5464 264° West 409 471 36,000  Level Minneapolis Center
Mon 08:23:07 PM 41.3703 -96.6922 263° West 409 471 36,000  Level Minneapolis Center
Mon 08:24:07 PM 41.3550 -96.8461 263° West 409 471 36,000  Level Minneapolis Center
Mon 08:25:07 PM 41.3419 -96.9944 264° West 409 471 36,000  Level Minneapolis Center
Mon 08:26:07 PM 41.3308 -97.1456 263° West 414 476 36,000  Level Minneapolis Center
Mon 08:27:07 PM 41.3172 -97.2967 265° West 414 476 36,000  Level Minneapolis Center
Mon 08:28:06 PM 41.3075 -97.4478 263° West 414 476 36,000  Level Minneapolis Center
Mon 08:29:07 PM 41.2936 -97.5989 263° West 414 476 36,000  Level Minneapolis Center
Mon 08:30:07 PM 41.2794 -97.7494 263° West 421 484 36,000  Level Minneapolis Center
Mon 08:31:07 PM 41.2647 -97.9058 263° West 426 490 36,000  Level Minneapolis Center
Mon 08:32:07 PM 41.2503 -98.0564 263° West 426 490 36,000  Level Minneapolis Center
Mon 08:33:07 PM 41.2353 -98.2097 262° West 421 484 36,000  Level Minneapolis Center
Mon 08:34:06 PM 41.2181 -98.3656 261° West 421 484 36,000  Level Minneapolis Center
Mon 08:35:06 PM 41.2006 -98.5186 264° West 426 490 36,000  Level Minneapolis Center
Mon 08:36:30 PM 41.1836 -98.7283 262° West 407 468 36,000  Level Denver Center
Mon 08:37:30 PM 41.1683 -98.8736 262° West 428 493 36,000  Level Denver Center
Mon 08:38:30 PM 41.1511 -99.0275 261° West 428 493 36,000  Level Denver Center
Mon 08:39:30 PM 41.1308 -99.1981 263° West 428 493 36,000  Level Denver Center
Mon 08:40:30 PM 41.1156 -99.3544 262° West 428 493 36,000  Level Denver Center
Mon 08:41:30 PM 41.1008 -99.4883 260° West 428 493 36,000  Level Denver Center
Mon 08:42:30 PM 41.0794 -99.6533 264° West 422 486 36,000  Level Denver Center
Mon 08:43:30 PM 41.0672 -99.8033 262° West 417 480 36,000  Level Denver Center
Mon 08:44:30 PM 41.0506 -99.9511 261° West 410 472 36,000  Level Denver Center
Mon 08:45:30 PM 41.0353 -100.0850 261° West 418 481 36,000  Level Denver Center
Mon 08:46:30 PM 41.0150 -100.2494 261° West 413 475 36,000  Level Denver Center
Mon 08:47:30 PM 40.9978 -100.3969 261° West 413 475 36,000  Level Denver Center
Mon 08:48:30 PM 40.9806 -100.5472 262° West 413 475 36,000  Level Denver Center
Mon 08:49:30 PM 40.9664 -100.6806 260° West 413 475 36,000  Level Denver Center
Mon 08:50:30 PM 40.9433 -100.8475 260° West 418 481 36,000  Level Denver Center
Mon 08:51:30 PM 40.9247 -100.9811 261° West 418 481 36,000  Level Denver Center
Mon 08:52:30 PM 40.9067 -101.1283 261° West 411 473 36,000  Level Denver Center
Mon 08:53:30 PM 40.8872 -101.2950 260° West 418 481 36,000  Level Denver Center
Mon 08:54:30 PM 40.8667 -101.4419 260° West 413 475 36,000  Level Denver Center
Mon 08:55:30 PM 40.8494 -101.5753 260° West 413 475 36,000  Level Denver Center
Mon 08:56:30 PM 40.8269 -101.7389 261° West 413 475 36,000  Level Denver Center
Mon 08:57:30 PM 40.8100 -101.8828 258° West 413 475 36,000  Level Denver Center
Mon 08:58:30 PM 40.7864 -102.0297 262° West 413 475 36,000  Level Denver Center
Mon 08:59:30 PM 40.7725 -102.1597 259° West 413 475 36,000  Level Denver Center
Mon 09:00:30 PM 40.7492 -102.3203 254° West 413 475 36,000  Level Denver Center
Mon 09:01:30 PM 40.7189 -102.4619 244° Southwest 408 470 36,000  Level Denver Center
Mon 09:02:30 PM 40.6672 -102.5992 249° West 414 476 36,000  Level Denver Center
Mon 09:03:30 PM 40.6261 -102.7411 243° Southwest 421 484 36,000 -250 Level Denver Center
Mon 09:04:30 PM 40.5739 -102.8781 243° Southwest 421 484 35,500 -1,450 Descending Denver Center
Mon 09:05:30 PM 40.5219 -103.0147 243° Southwest 421 484 33,100 -2,550 Descending Denver Center
Mon 09:06:30 PM 40.4697 -103.1511 244° Southwest 416 479 30,400 -2,700 Descending Denver Center
Mon 09:07:30 PM 40.4172 -103.2903 243° Southwest 416 479 27,700 -2,350 Descending Denver Center
Mon 09:08:30 PM 40.3686 -103.4178 244° Southwest 410 472 25,700 -2,050 Descending Denver Center
Mon 09:09:30 PM 40.3256 -103.5342 243° Southwest 403 464 23,600 -2,100 Descending Denver Center
Mon 09:10:30 PM 40.2786 -103.6533 244° Southwest 384 442 21,500 -2,150 Descending Denver Center
Mon 09:11:30 PM 40.2336 -103.7722 269° West 367 422 19,300 -1,250 Descending Denver Center
Mon 09:12:30 PM 40.2319 -103.8811 279° West 328 377 19,000 -500 Descending Denver Center
Mon 09:13:30 PM 40.2444 -103.9811 280° West 288 331 18,300 -1,000 Descending Denver Center
Mon 09:14:30 PM 40.2569 -104.0789 281° West 282 325 17,000 -1,150 Descending Denver Center
Mon 09:15:30 PM 40.2692 -104.1653 280° West 260 299 16,000 -1,150 Descending Denver Center
Mon 09:16:30 PM 40.2814 -104.2522 279° West 249 287 14,700 -1,300 Descending Denver Center
Mon 09:17:30 PM 40.2933 -104.3469 271° West 243 280 13,400 -800 Descending Denver Center
Mon 09:18:30 PM 40.2950 -104.4342 256° West 243 280 13,100 -500 Descending Denver Center
Mon 09:19:30 PM 40.2797 -104.5161 202° Southwest 238 274 12,400 -950 Descending Denver Center
Mon 09:20:30 PM 40.2158 -104.5506 204° Southwest 217 250 11,200 -1,150 Descending Denver Center
Mon 09:21:30 PM 40.1558 -104.5850 196° South 243 280 10,100 -1,109 Descending Denver Center
Mon 09:22:02 PM 40.1167 -104.6000 207° Southwest 233 268 9,500 -1,174 Descending Denver TRACON
Mon 09:23:02 PM 40.0667 -104.6333 201° Southwest 232 267 8,300 -1,150 Descending Denver TRACON
Mon 09:24:02 PM 40.0000 -104.6667 194° South 228 262 7,200 -1,000 Descending Denver TRACON
Mon 09:24:56 PM 39.9500 -104.6833 180° South 203 234 6,400 -842 Descending Denver TRACON
Mon 09:25:56 PM 39.9000 -104.6833 180° South 165 190 5,600 -800 Descending Denver TRACON

Login

Don't have an account? Register now (free) for customized features, flight alerts, and more!